sensor_id;sensor_type;location;lat;lon;timestamp;P1;durP1;ratioP1;P2;durP2;ratioP2
22378;SDS011;11357;49.990;7.370;2022-12-07T00:01:15;36.40;;;27.20;;
22378;SDS011;11357;49.990;7.370;2022-12-07T00:03:45;38.30;;;27.33;;
22378;SDS011;11357;49.990;7.370;2022-12-07T00:06:13;34.43;;;21.33;;
22378;SDS011;11357;49.990;7.370;2022-12-07T00:08:40;31.20;;;23.77;;
22378;SDS011;11357;49.990;7.370;2022-12-07T00:11:13;39.40;;;29.37;;
22378;SDS011;11357;49.990;7.370;2022-12-07T00:13:41;39.77;;;24.47;;
22378;SDS011;11357;49.990;7.370;2022-12-07T00:16:08;46.13;;;32.67;;
22378;SDS011;11357;49.990;7.370;2022-12-07T00:18:35;37.30;;;26.57;;
22378;SDS011;11357;49.990;7.370;2022-12-07T00:21:03;42.43;;;25.77;;
22378;SDS011;11357;49.990;7.370;2022-12-07T00:23:39;50.30;;;27.27;;
22378;SDS011;11357;49.990;7.370;2022-12-07T00:26:06;50.03;;;26.43;;
22378;SDS011;11357;49.990;7.370;2022-12-07T00:28:34;38.90;;;25.47;;
22378;SDS011;11357;49.990;7.370;2022-12-07T00:31:01;34.90;;;22.43;;
22378;SDS011;11357;49.990;7.370;2022-12-07T00:33:28;43.93;;;29.40;;
22378;SDS011;11357;49.990;7.370;2022-12-07T00:35:57;46.10;;;29.07;;
22378;SDS011;11357;49.990;7.370;2022-12-07T00:38:24;47.13;;;28.93;;
22378;SDS011;11357;49.990;7.370;2022-12-07T00:40:58;58.87;;;29.53;;
22378;SDS011;11357;49.990;7.370;2022-12-07T00:43:29;47.03;;;25.17;;
22378;SDS011;11357;49.990;7.370;2022-12-07T00:45:55;43.43;;;25.90;;
22378;SDS011;11357;49.990;7.370;2022-12-07T00:48:22;47.70;;;26.27;;
22378;SDS011;11357;49.990;7.370;2022-12-07T00:50:48;47.23;;;27.37;;
22378;SDS011;11357;49.990;7.370;2022-12-07T00:53:14;40.43;;;32.87;;
22378;SDS011;11357;49.990;7.370;2022-12-07T00:55:40;40.00;;;24.17;;
22378;SDS011;11357;49.990;7.370;2022-12-07T00:58:06;44.93;;;30.27;;
22378;SDS011;11357;49.990;7.370;2022-12-07T01:00:32;49.80;;;37.23;;
22378;SDS011;11357;49.990;7.370;2022-12-07T01:03:00;50.90;;;31.20;;
22378;SDS011;11357;49.990;7.370;2022-12-07T01:05:25;47.63;;;29.83;;
22378;SDS011;11357;49.990;7.370;2022-12-07T01:07:51;51.17;;;30.33;;
22378;SDS011;11357;49.990;7.370;2022-12-07T01:10:17;50.00;;;37.93;;
22378;SDS011;11357;49.990;7.370;2022-12-07T01:12:42;48.47;;;32.43;;
22378;SDS011;11357;49.990;7.370;2022-12-07T01:15:08;47.30;;;29.43;;
22378;SDS011;11357;49.990;7.370;2022-12-07T01:17:34;49.63;;;32.27;;
22378;SDS011;11357;49.990;7.370;2022-12-07T01:20:00;46.43;;;29.67;;
22378;SDS011;11357;49.990;7.370;2022-12-07T01:22:26;49.23;;;30.90;;
22378;SDS011;11357;49.990;7.370;2022-12-07T01:24:52;64.33;;;39.90;;
22378;SDS011;11357;49.990;7.370;2022-12-07T01:27:17;52.30;;;40.30;;
22378;SDS011;11357;49.990;7.370;2022-12-07T01:29:43;46.80;;;28.07;;
22378;SDS011;11357;49.990;7.370;2022-12-07T01:32:09;49.83;;;30.83;;
22378;SDS011;11357;49.990;7.370;2022-12-07T01:34:35;59.53;;;37.00;;
22378;SDS011;11357;49.990;7.370;2022-12-07T01:37:01;52.70;;;36.37;;
22378;SDS011;11357;49.990;7.370;2022-12-07T01:39:26;45.40;;;30.93;;
22378;SDS011;11357;49.990;7.370;2022-12-07T01:41:52;43.27;;;25.00;;
22378;SDS011;11357;49.990;7.370;2022-12-07T01:46:58;51.23;;;27.40;;
22378;SDS011;11357;49.990;7.370;2022-12-07T01:49:27;48.30;;;30.83;;
22378;SDS011;11357;49.990;7.370;2022-12-07T01:52:15;45.93;;;27.53;;
22378;SDS011;11357;49.990;7.370;2022-12-07T01:54:42;48.27;;;24.20;;
22378;SDS011;11357;49.990;7.370;2022-12-07T01:57:09;56.20;;;37.33;;
22378;SDS011;11357;49.990;7.370;2022-12-07T01:59:36;47.50;;;30.90;;
22378;SDS011;11357;49.990;7.370;2022-12-07T03:17:05;74.97;;;45.63;;
22378;SDS011;11357;49.990;7.370;2022-12-07T03:19:49;70.50;;;41.37;;
22378;SDS011;11357;49.990;7.370;2022-12-07T03:22:18;72.90;;;52.27;;
22378;SDS011;11357;49.990;7.370;2022-12-07T03:24:47;77.63;;;56.10;;
22378;SDS011;11357;49.990;7.370;2022-12-07T03:27:21;86.30;;;49.20;;
22378;SDS011;11357;49.990;7.370;2022-12-07T03:30:00;71.30;;;37.97;;
22378;SDS011;11357;49.990;7.370;2022-12-07T03:32:33;79.93;;;55.60;;
22378;SDS011;11357;49.990;7.370;2022-12-07T03:43:02;77.50;;;48.77;;
22378;SDS011;11357;49.990;7.370;2022-12-07T03:45:39;73.40;;;51.93;;
22378;SDS011;11357;49.990;7.370;2022-12-07T03:51:10;67.43;;;31.23;;
22378;SDS011;11357;49.990;7.370;2022-12-07T04:35:12;105.60;;;77.60;;
22378;SDS011;11357;49.990;7.370;2022-12-07T04:37:37;76.87;;;54.30;;
22378;SDS011;11357;49.990;7.370;2022-12-07T04:40:05;76.43;;;51.37;;
22378;SDS011;11357;49.990;7.370;2022-12-07T04:42:32;63.53;;;42.40;;
22378;SDS011;11357;49.990;7.370;2022-12-07T04:44:58;83.87;;;45.40;;
22378;SDS011;11357;49.990;7.370;2022-12-07T04:47:24;75.30;;;47.10;;
22378;SDS011;11357;49.990;7.370;2022-12-07T04:49:49;74.17;;;40.90;;
22378;SDS011;11357;49.990;7.370;2022-12-07T04:52:15;86.67;;;65.87;;
22378;SDS011;11357;49.990;7.370;2022-12-07T04:54:40;98.63;;;85.70;;
22378;SDS011;11357;49.990;7.370;2022-12-07T04:57:06;80.60;;;61.63;;
22378;SDS011;11357;49.990;7.370;2022-12-07T04:59:32;90.30;;;70.70;;
22378;SDS011;11357;49.990;7.370;2022-12-07T05:01:57;78.57;;;68.23;;
22378;SDS011;11357;49.990;7.370;2022-12-07T05:04:23;97.07;;;75.90;;
22378;SDS011;11357;49.990;7.370;2022-12-07T05:06:48;78.93;;;50.33;;
22378;SDS011;11357;49.990;7.370;2022-12-07T05:09:14;104.00;;;77.47;;
22378;SDS011;11357;49.990;7.370;2022-12-07T05:11:40;79.83;;;66.53;;
22378;SDS011;11357;49.990;7.370;2022-12-07T05:14:07;115.47;;;84.27;;
22378;SDS011;11357;49.990;7.370;2022-12-07T05:16:36;93.90;;;69.77;;
22378;SDS011;11357;49.990;7.370;2022-12-07T05:19:02;108.67;;;82.83;;
22378;SDS011;11357;49.990;7.370;2022-12-07T05:21:29;86.70;;;58.47;;
22378;SDS011;11357;49.990;7.370;2022-12-07T05:23:55;90.03;;;65.40;;
22378;SDS011;11357;49.990;7.370;2022-12-07T05:26:20;100.30;;;81.50;;
22378;SDS011;11357;49.990;7.370;2022-12-07T05:28:49;116.37;;;74.57;;
22378;SDS011;11357;49.990;7.370;2022-12-07T05:31:16;90.17;;;63.97;;
22378;SDS011;11357;49.990;7.370;2022-12-07T05:33:42;92.57;;;72.97;;
22378;SDS011;11357;49.990;7.370;2022-12-07T05:36:07;107.07;;;67.77;;
22378;SDS011;11357;49.990;7.370;2022-12-07T05:38:33;103.07;;;74.33;;
22378;SDS011;11357;49.990;7.370;2022-12-07T05:41:00;96.77;;;67.27;;
22378;SDS011;11357;49.990;7.370;2022-12-07T05:43:27;109.10;;;71.30;;
22378;SDS011;11357;49.990;7.370;2022-12-07T05:45:53;104.43;;;83.07;;
22378;SDS011;11357;49.990;7.370;2022-12-07T05:48:19;123.53;;;82.73;;
22378;SDS011;11357;49.990;7.370;2022-12-07T05:50:47;109.30;;;94.70;;
22378;SDS011;11357;49.990;7.370;2022-12-07T05:53:13;94.40;;;80.27;;
22378;SDS011;11357;49.990;7.370;2022-12-07T05:55:39;99.00;;;72.53;;
22378;SDS011;11357;49.990;7.370;2022-12-07T05:58:04;124.50;;;109.80;;
22378;SDS011;11357;49.990;7.370;2022-12-07T06:00:48;90.67;;;61.40;;
22378;SDS011;11357;49.990;7.370;2022-12-07T06:03:14;91.03;;;65.93;;
22378;SDS011;11357;49.990;7.370;2022-12-07T06:05:40;93.90;;;59.63;;
22378;SDS011;11357;49.990;7.370;2022-12-07T06:08:06;90.80;;;77.70;;
22378;SDS011;11357;49.990;7.370;2022-12-07T06:10:32;120.13;;;104.47;;
22378;SDS011;11357;49.990;7.370;2022-12-07T06:12:58;121.03;;;102.97;;
22378;SDS011;11357;49.990;7.370;2022-12-07T06:15:24;113.37;;;88.67;;
22378;SDS011;11357;49.990;7.370;2022-12-07T06:17:49;97.60;;;74.67;;
22378;SDS011;11357;49.990;7.370;2022-12-07T06:20:15;97.53;;;73.43;;
22378;SDS011;11357;49.990;7.370;2022-12-07T06:30:27;110.37;;;71.10;;
22378;SDS011;11357;49.990;7.370;2022-12-07T06:32:52;109.13;;;95.00;;
22378;SDS011;11357;49.990;7.370;2022-12-07T06:35:18;94.93;;;78.60;;
22378;SDS011;11357;49.990;7.370;2022-12-07T06:37:43;83.70;;;63.67;;
22378;SDS011;11357;49.990;7.370;2022-12-07T06:40:09;106.83;;;89.53;;
22378;SDS011;11357;49.990;7.370;2022-12-07T06:42:35;105.07;;;84.57;;
22378;SDS011;11357;49.990;7.370;2022-12-07T06:45:01;82.47;;;63.90;;
22378;SDS011;11357;49.990;7.370;2022-12-07T06:47:26;111.73;;;95.30;;
22378;SDS011;11357;49.990;7.370;2022-12-07T06:49:52;108.83;;;96.83;;
22378;SDS011;11357;49.990;7.370;2022-12-07T06:52:17;90.13;;;78.87;;
22378;SDS011;11357;49.990;7.370;2022-12-07T06:54:43;117.10;;;95.03;;
22378;SDS011;11357;49.990;7.370;2022-12-07T06:57:10;117.53;;;102.57;;
22378;SDS011;11357;49.990;7.370;2022-12-07T06:59:35;97.47;;;82.40;;
22378;SDS011;11357;49.990;7.370;2022-12-07T07:02:01;103.03;;;90.30;;
22378;SDS011;11357;49.990;7.370;2022-12-07T07:04:26;111.83;;;97.30;;
22378;SDS011;11357;49.990;7.370;2022-12-07T07:06:52;84.27;;;55.00;;
22378;SDS011;11357;49.990;7.370;2022-12-07T07:09:18;87.90;;;53.07;;
22378;SDS011;11357;49.990;7.370;2022-12-07T07:14:19;85.10;;;65.77;;
22378;SDS011;11357;49.990;7.370;2022-12-07T07:16:46;80.23;;;69.67;;
22378;SDS011;11357;49.990;7.370;2022-12-07T07:19:11;102.43;;;71.87;;
22378;SDS011;11357;49.990;7.370;2022-12-07T07:21:37;74.00;;;57.63;;
22378;SDS011;11357;49.990;7.370;2022-12-07T07:24:03;91.40;;;77.13;;
22378;SDS011;11357;49.990;7.370;2022-12-07T07:26:28;96.80;;;83.60;;
22378;SDS011;11357;49.990;7.370;2022-12-07T07:28:55;89.17;;;42.67;;
22378;SDS011;11357;49.990;7.370;2022-12-07T07:31:20;89.17;;;65.20;;
22378;SDS011;11357;49.990;7.370;2022-12-07T07:33:46;80.60;;;69.10;;
22378;SDS011;11357;49.990;7.370;2022-12-07T07:36:12;136.60;;;119.63;;
22378;SDS011;11357;49.990;7.370;2022-12-07T07:38:38;94.20;;;77.50;;
22378;SDS011;11357;49.990;7.370;2022-12-07T07:41:04;96.67;;;83.30;;
22378;SDS011;11357;49.990;7.370;2022-12-07T07:43:29;95.73;;;71.50;;
22378;SDS011;11357;49.990;7.370;2022-12-07T07:45:55;104.93;;;81.77;;
22378;SDS011;11357;49.990;7.370;2022-12-07T07:48:21;82.80;;;67.13;;
22378;SDS011;11357;49.990;7.370;2022-12-07T07:50:47;86.93;;;60.83;;
22378;SDS011;11357;49.990;7.370;2022-12-07T07:53:13;125.67;;;85.57;;
22378;SDS011;11357;49.990;7.370;2022-12-07T07:55:39;106.73;;;81.80;;
22378;SDS011;11357;49.990;7.370;2022-12-07T07:58:04;77.93;;;56.23;;
22378;SDS011;11357;49.990;7.370;2022-12-07T08:00:30;90.47;;;62.93;;
22378;SDS011;11357;49.990;7.370;2022-12-07T08:02:55;88.13;;;71.93;;
22378;SDS011;11357;49.990;7.370;2022-12-07T08:05:21;92.73;;;83.37;;
22378;SDS011;11357;49.990;7.370;2022-12-07T08:07:47;78.97;;;64.90;;
22378;SDS011;11357;49.990;7.370;2022-12-07T08:10:13;84.73;;;76.83;;
22378;SDS011;11357;49.990;7.370;2022-12-07T08:12:39;86.80;;;78.03;;
22378;SDS011;11357;49.990;7.370;2022-12-07T08:15:26;77.43;;;67.73;;
22378;SDS011;11357;49.990;7.370;2022-12-07T08:17:53;69.13;;;60.33;;
22378;SDS011;11357;49.990;7.370;2022-12-07T08:20:18;93.50;;;82.73;;
22378;SDS011;11357;49.990;7.370;2022-12-07T08:22:44;87.37;;;78.33;;
22378;SDS011;11357;49.990;7.370;2022-12-07T08:25:10;104.27;;;94.33;;
22378;SDS011;11357;49.990;7.370;2022-12-07T08:27:36;111.60;;;100.80;;
22378;SDS011;11357;49.990;7.370;2022-12-07T08:30:01;120.10;;;109.03;;
22378;SDS011;11357;49.990;7.370;2022-12-07T08:32:27;78.37;;;70.43;;
22378;SDS011;11357;49.990;7.370;2022-12-07T08:34:53;94.80;;;80.40;;
22378;SDS011;11357;49.990;7.370;2022-12-07T08:37:18;102.20;;;93.63;;
22378;SDS011;11357;49.990;7.370;2022-12-07T08:39:44;59.33;;;49.27;;
22378;SDS011;11357;49.990;7.370;2022-12-07T08:42:10;112.03;;;102.33;;
22378;SDS011;11357;49.990;7.370;2022-12-07T08:44:35;99.20;;;90.43;;
22378;SDS011;11357;49.990;7.370;2022-12-07T08:47:02;76.70;;;69.20;;
22378;SDS011;11357;49.990;7.370;2022-12-07T08:49:31;66.17;;;59.67;;
22378;SDS011;11357;49.990;7.370;2022-12-07T08:52:04;81.60;;;74.33;;
22378;SDS011;11357;49.990;7.370;2022-12-07T08:54:30;97.00;;;88.97;;
22378;SDS011;11357;49.990;7.370;2022-12-07T08:57:00;136.03;;;125.97;;
22378;SDS011;11357;49.990;7.370;2022-12-07T08:59:26;157.53;;;146.00;;
22378;SDS011;11357;49.990;7.370;2022-12-07T09:01:53;135.50;;;125.20;;
22378;SDS011;11357;49.990;7.370;2022-12-07T09:04:19;170.20;;;157.73;;
22378;SDS011;11357;49.990;7.370;2022-12-07T09:06:45;163.13;;;151.27;;
22378;SDS011;11357;49.990;7.370;2022-12-07T09:09:12;171.27;;;159.53;;
22378;SDS011;11357;49.990;7.370;2022-12-07T09:11:38;174.73;;;162.33;;
22378;SDS011;11357;49.990;7.370;2022-12-07T09:14:04;116.30;;;108.03;;
22378;SDS011;11357;49.990;7.370;2022-12-07T09:16:30;128.03;;;118.60;;
22378;SDS011;11357;49.990;7.370;2022-12-07T09:18:56;122.00;;;113.50;;
22378;SDS011;11357;49.990;7.370;2022-12-07T09:21:21;126.23;;;116.93;;
22378;SDS011;11357;49.990;7.370;2022-12-07T09:26:22;161.57;;;150.40;;
22378;SDS011;11357;49.990;7.370;2022-12-07T09:28:48;117.63;;;109.47;;
22378;SDS011;11357;49.990;7.370;2022-12-07T09:31:13;149.13;;;138.93;;
22378;SDS011;11357;49.990;7.370;2022-12-07T09:33:39;147.57;;;137.37;;
22378;SDS011;11357;49.990;7.370;2022-12-07T09:36:06;79.67;;;73.60;;
22378;SDS011;11357;49.990;7.370;2022-12-07T09:38:32;82.20;;;76.20;;
22378;SDS011;11357;49.990;7.370;2022-12-07T09:40:58;119.77;;;111.20;;
22378;SDS011;11357;49.990;7.370;2022-12-07T10:06:41;83.97;;;78.30;;
22378;SDS011;11357;49.990;7.370;2022-12-07T10:09:11;90.83;;;84.73;;
22378;SDS011;11357;49.990;7.370;2022-12-07T10:32:30;101.23;;;94.40;;
22378;SDS011;11357;49.990;7.370;2022-12-07T10:35:20;137.47;;;128.80;;
22378;SDS011;11357;49.990;7.370;2022-12-07T10:37:47;57.00;;;52.90;;
22378;SDS011;11357;49.990;7.370;2022-12-07T10:40:33;54.33;;;50.40;;
22378;SDS011;11357;49.990;7.370;2022-12-07T10:51:26;40.60;;;37.23;;
22378;SDS011;11357;49.990;7.370;2022-12-07T11:05:29;18.63;;;8.97;;
22378;SDS011;11357;49.990;7.370;2022-12-07T11:10:47;39.43;;;36.23;;
22378;SDS011;11357;49.990;7.370;2022-12-07T11:13:26;60.33;;;56.27;;
22378;SDS011;11357;49.990;7.370;2022-12-07T11:16:11;61.13;;;56.93;;
22378;SDS011;11357;49.990;7.370;2022-12-07T11:18:51;25.13;;;22.93;;
22378;SDS011;11357;49.990;7.370;2022-12-07T11:37:02;70.90;;;66.43;;
22378;SDS011;11357;49.990;7.370;2022-12-07T11:39:40;30.40;;;27.47;;
22378;SDS011;11357;49.990;7.370;2022-12-07T11:42:21;18.23;;;16.47;;
22378;SDS011;11357;49.990;7.370;2022-12-07T11:44:55;45.87;;;42.67;;
22378;SDS011;11357;49.990;7.370;2022-12-07T11:47:35;13.87;;;12.43;;
22378;SDS011;11357;49.990;7.370;2022-12-07T11:50:30;48.23;;;44.97;;
22378;SDS011;11357;49.990;7.370;2022-12-07T11:53:05;16.03;;;14.53;;
22378;SDS011;11357;49.990;7.370;2022-12-07T12:03:38;54.33;;;50.83;;
22378;SDS011;11357;49.990;7.370;2022-12-07T12:06:11;17.43;;;15.70;;
22378;SDS011;11357;49.990;7.370;2022-12-07T12:25:42;91.63;;;86.07;;
22378;SDS011;11357;49.990;7.370;2022-12-07T12:28:59;43.80;;;40.63;;
22378;SDS011;11357;49.990;7.370;2022-12-07T12:31:15;14.80;;;12.90;;
22378;SDS011;11357;49.990;7.370;2022-12-07T12:33:56;39.80;;;36.70;;
22378;SDS011;11357;49.990;7.370;2022-12-07T12:46:59;98.57;;;92.80;;
22378;SDS011;11357;49.990;7.370;2022-12-07T12:49:40;98.30;;;92.37;;
22378;SDS011;11357;49.990;7.370;2022-12-07T12:54:59;31.43;;;28.73;;
22378;SDS011;11357;49.990;7.370;2022-12-07T12:57:28;44.13;;;41.27;;
22378;SDS011;11357;49.990;7.370;2022-12-07T13:00:00;73.33;;;68.87;;
22378;SDS011;11357;49.990;7.370;2022-12-07T13:02:47;64.70;;;60.77;;
22378;SDS011;11357;49.990;7.370;2022-12-07T13:05:20;53.30;;;49.60;;
22378;SDS011;11357;49.990;7.370;2022-12-07T13:07:54;69.63;;;65.30;;
22378;SDS011;11357;49.990;7.370;2022-12-07T13:10:37;115.90;;;108.93;;
22378;SDS011;11357;49.990;7.370;2022-12-07T13:21:01;124.93;;;117.50;;
22378;SDS011;11357;49.990;7.370;2022-12-07T13:26:21;123.57;;;116.37;;
22378;SDS011;11357;49.990;7.370;2022-12-07T13:31:33;45.47;;;42.20;;
22378;SDS011;11357;49.990;7.370;2022-12-07T13:39:53;13.27;;;12.03;;
22378;SDS011;11357;49.990;7.370;2022-12-07T13:42:25;47.73;;;44.73;;
22378;SDS011;11357;49.990;7.370;2022-12-07T13:44:52;26.90;;;24.70;;
22378;SDS011;11357;49.990;7.370;2022-12-07T13:47:27;54.37;;;51.07;;
22378;SDS011;11357;49.990;7.370;2022-12-07T13:50:22;22.97;;;21.33;;
22378;SDS011;11357;49.990;7.370;2022-12-07T13:52:48;23.03;;;20.93;;
22378;SDS011;11357;49.990;7.370;2022-12-07T13:55:15;41.17;;;38.40;;
22378;SDS011;11357;49.990;7.370;2022-12-07T13:57:44;62.20;;;58.20;;
22378;SDS011;11357;49.990;7.370;2022-12-07T14:00:16;148.70;;;139.80;;
22378;SDS011;11357;49.990;7.370;2022-12-07T14:05:25;91.47;;;85.93;;
22378;SDS011;11357;49.990;7.370;2022-12-07T14:07:56;61.83;;;57.97;;
22378;SDS011;11357;49.990;7.370;2022-12-07T14:10:30;87.07;;;81.87;;
22378;SDS011;11357;49.990;7.370;2022-12-07T14:13:01;37.30;;;34.70;;
22378;SDS011;11357;49.990;7.370;2022-12-07T14:15:49;56.93;;;53.43;;
22378;SDS011;11357;49.990;7.370;2022-12-07T14:18:29;57.40;;;53.90;;
22378;SDS011;11357;49.990;7.370;2022-12-07T14:21:02;60.10;;;56.33;;
22378;SDS011;11357;49.990;7.370;2022-12-07T14:23:34;68.07;;;63.63;;
22378;SDS011;11357;49.990;7.370;2022-12-07T14:28:34;56.90;;;53.00;;
22378;SDS011;11357;49.990;7.370;2022-12-07T14:31:01;78.30;;;73.47;;
22378;SDS011;11357;49.990;7.370;2022-12-07T14:33:28;112.23;;;105.53;;
22378;SDS011;11357;49.990;7.370;2022-12-07T14:35:54;101.20;;;95.50;;
22378;SDS011;11357;49.990;7.370;2022-12-07T14:38:22;53.90;;;50.57;;
22378;SDS011;11357;49.990;7.370;2022-12-07T14:40:49;73.80;;;69.20;;
22378;SDS011;11357;49.990;7.370;2022-12-07T14:43:26;87.37;;;82.17;;
22378;SDS011;11357;49.990;7.370;2022-12-07T14:45:51;92.67;;;86.97;;
22378;SDS011;11357;49.990;7.370;2022-12-07T14:48:17;119.37;;;112.73;;
22378;SDS011;11357;49.990;7.370;2022-12-07T14:50:49;133.67;;;125.67;;
22378;SDS011;11357;49.990;7.370;2022-12-07T14:53:18;123.20;;;115.30;;
22378;SDS011;11357;49.990;7.370;2022-12-07T14:55:53;101.87;;;95.57;;
22378;SDS011;11357;49.990;7.370;2022-12-07T14:58:18;90.40;;;84.90;;
22378;SDS011;11357;49.990;7.370;2022-12-07T15:00:45;111.27;;;104.50;;
22378;SDS011;11357;49.990;7.370;2022-12-07T15:03:12;79.93;;;75.30;;
22378;SDS011;11357;49.990;7.370;2022-12-07T15:05:38;89.40;;;84.17;;
22378;SDS011;11357;49.990;7.370;2022-12-07T15:08:05;114.33;;;107.77;;
22378;SDS011;11357;49.990;7.370;2022-12-07T15:10:31;73.77;;;69.40;;
22378;SDS011;11357;49.990;7.370;2022-12-07T15:13:02;54.23;;;50.43;;
22378;SDS011;11357;49.990;7.370;2022-12-07T15:15:47;61.50;;;57.30;;
22378;SDS011;11357;49.990;7.370;2022-12-07T15:18:14;68.10;;;63.80;;
22378;SDS011;11357;49.990;7.370;2022-12-07T15:20:41;68.57;;;64.37;;
22378;SDS011;11357;49.990;7.370;2022-12-07T15:23:07;60.87;;;57.23;;
22378;SDS011;11357;49.990;7.370;2022-12-07T15:25:32;127.23;;;119.70;;
22378;SDS011;11357;49.990;7.370;2022-12-07T15:27:58;62.63;;;58.83;;
22378;SDS011;11357;49.990;7.370;2022-12-07T15:30:24;92.27;;;86.93;;
22378;SDS011;11357;49.990;7.370;2022-12-07T15:32:50;64.67;;;60.80;;
22378;SDS011;11357;49.990;7.370;2022-12-07T15:35:16;73.00;;;68.70;;
22378;SDS011;11357;49.990;7.370;2022-12-07T15:37:42;67.43;;;63.17;;
22378;SDS011;11357;49.990;7.370;2022-12-07T15:40:08;95.03;;;89.57;;
22378;SDS011;11357;49.990;7.370;2022-12-07T15:42:35;119.77;;;112.27;;
22378;SDS011;11357;49.990;7.370;2022-12-07T15:45:01;93.40;;;87.53;;
22378;SDS011;11357;49.990;7.370;2022-12-07T15:47:29;104.10;;;98.00;;
22378;SDS011;11357;49.990;7.370;2022-12-07T15:50:00;103.83;;;97.67;;
22378;SDS011;11357;49.990;7.370;2022-12-07T15:52:25;140.03;;;131.93;;
22378;SDS011;11357;49.990;7.370;2022-12-07T15:54:51;101.03;;;95.23;;
22378;SDS011;11357;49.990;7.370;2022-12-07T15:57:17;91.57;;;86.10;;
22378;SDS011;11357;49.990;7.370;2022-12-07T15:59:43;99.23;;;93.27;;
22378;SDS011;11357;49.990;7.370;2022-12-07T16:02:09;70.13;;;65.77;;
22378;SDS011;11357;49.990;7.370;2022-12-07T16:04:36;75.20;;;70.77;;
22378;SDS011;11357;49.990;7.370;2022-12-07T16:07:02;83.50;;;78.13;;
22378;SDS011;11357;49.990;7.370;2022-12-07T16:09:28;90.60;;;85.00;;
22378;SDS011;11357;49.990;7.370;2022-12-07T16:11:54;105.37;;;99.17;;
22378;SDS011;11357;49.990;7.370;2022-12-07T16:14:20;96.73;;;91.07;;
22378;SDS011;11357;49.990;7.370;2022-12-07T16:16:46;100.23;;;94.43;;
22378;SDS011;11357;49.990;7.370;2022-12-07T16:19:13;54.73;;;51.20;;
22378;SDS011;11357;49.990;7.370;2022-12-07T16:21:39;77.87;;;73.17;;
22378;SDS011;11357;49.990;7.370;2022-12-07T16:24:05;64.50;;;60.50;;
22378;SDS011;11357;49.990;7.370;2022-12-07T16:26:32;89.13;;;83.37;;
22378;SDS011;11357;49.990;7.370;2022-12-07T16:28:57;83.73;;;78.30;;
22378;SDS011;11357;49.990;7.370;2022-12-07T16:31:25;89.13;;;83.63;;
22378;SDS011;11357;49.990;7.370;2022-12-07T16:33:55;75.57;;;71.10;;
22378;SDS011;11357;49.990;7.370;2022-12-07T16:36:22;66.30;;;62.07;;
22378;SDS011;11357;49.990;7.370;2022-12-07T16:38:50;64.50;;;60.20;;
22378;SDS011;11357;49.990;7.370;2022-12-07T16:41:16;66.30;;;62.33;;
22378;SDS011;11357;49.990;7.370;2022-12-07T16:43:43;56.63;;;52.90;;
22378;SDS011;11357;49.990;7.370;2022-12-07T16:46:09;51.47;;;47.47;;
22378;SDS011;11357;49.990;7.370;2022-12-07T16:48:35;57.73;;;53.93;;
22378;SDS011;11357;49.990;7.370;2022-12-07T16:51:03;65.57;;;61.27;;
22378;SDS011;11357;49.990;7.370;2022-12-07T16:53:30;80.87;;;75.93;;
22378;SDS011;11357;49.990;7.370;2022-12-07T16:55:56;60.77;;;56.97;;
22378;SDS011;11357;49.990;7.370;2022-12-07T16:58:22;57.20;;;52.37;;
22378;SDS011;11357;49.990;7.370;2022-12-07T17:00:48;93.53;;;87.77;;
22378;SDS011;11357;49.990;7.370;2022-12-07T17:03:14;64.30;;;60.20;;
22378;SDS011;11357;49.990;7.370;2022-12-07T17:05:42;41.93;;;38.87;;
22378;SDS011;11357;49.990;7.370;2022-12-07T17:08:09;57.00;;;53.23;;
22378;SDS011;11357;49.990;7.370;2022-12-07T17:10:36;42.47;;;39.63;;
22378;SDS011;11357;49.990;7.370;2022-12-07T17:16:00;30.70;;;28.33;;
22378;SDS011;11357;49.990;7.370;2022-12-07T17:18:32;37.40;;;34.27;;
22378;SDS011;11357;49.990;7.370;2022-12-07T17:21:06;42.43;;;38.87;;
22378;SDS011;11357;49.990;7.370;2022-12-07T17:23:34;25.23;;;16.87;;
22378;SDS011;11357;49.990;7.370;2022-12-07T17:26:20;46.90;;;43.57;;
22378;SDS011;11357;49.990;7.370;2022-12-07T17:28:48;49.13;;;45.90;;
22378;SDS011;11357;49.990;7.370;2022-12-07T17:31:14;54.07;;;50.20;;
22378;SDS011;11357;49.990;7.370;2022-12-07T17:33:41;55.70;;;51.73;;
22378;SDS011;11357;49.990;7.370;2022-12-07T17:38:36;48.40;;;44.83;;
22378;SDS011;11357;49.990;7.370;2022-12-07T17:41:12;56.40;;;52.70;;
22378;SDS011;11357;49.990;7.370;2022-12-07T17:44:02;44.30;;;41.30;;
22378;SDS011;11357;49.990;7.370;2022-12-07T17:46:29;57.00;;;53.27;;
22378;SDS011;11357;49.990;7.370;2022-12-07T17:48:55;54.57;;;51.07;;
22378;SDS011;11357;49.990;7.370;2022-12-07T17:51:22;33.47;;;31.03;;
22378;SDS011;11357;49.990;7.370;2022-12-07T17:54:08;37.00;;;34.33;;
22378;SDS011;11357;49.990;7.370;2022-12-07T17:56:34;39.83;;;37.13;;
22378;SDS011;11357;49.990;7.370;2022-12-07T17:59:00;31.47;;;28.93;;
22378;SDS011;11357;49.990;7.370;2022-12-07T18:01:26;17.80;;;16.27;;
22378;SDS011;11357;49.990;7.370;2022-12-07T18:03:56;33.93;;;31.20;;
22378;SDS011;11357;49.990;7.370;2022-12-07T18:06:22;44.57;;;41.37;;
22378;SDS011;11357;49.990;7.370;2022-12-07T18:08:47;35.83;;;33.47;;
22378;SDS011;11357;49.990;7.370;2022-12-07T18:11:13;33.20;;;30.63;;
22378;SDS011;11357;49.990;7.370;2022-12-07T18:13:39;45.50;;;42.20;;
22378;SDS011;11357;49.990;7.370;2022-12-07T18:16:15;67.50;;;63.43;;
22378;SDS011;11357;49.990;7.370;2022-12-07T18:21:24;62.77;;;58.77;;
22378;SDS011;11357;49.990;7.370;2022-12-07T18:23:53;42.30;;;39.50;;
22378;SDS011;11357;49.990;7.370;2022-12-07T18:26:21;66.10;;;61.67;;
22378;SDS011;11357;49.990;7.370;2022-12-07T18:28:49;87.70;;;81.63;;
22378;SDS011;11357;49.990;7.370;2022-12-07T18:31:15;63.43;;;59.67;;
22378;SDS011;11357;49.990;7.370;2022-12-07T18:33:42;89.43;;;84.10;;
22378;SDS011;11357;49.990;7.370;2022-12-07T18:36:09;57.07;;;53.20;;
22378;SDS011;11357;49.990;7.370;2022-12-07T18:38:36;71.63;;;66.90;;
22378;SDS011;11357;49.990;7.370;2022-12-07T18:41:02;38.47;;;35.53;;
22378;SDS011;11357;49.990;7.370;2022-12-07T18:43:30;54.63;;;51.10;;
22378;SDS011;11357;49.990;7.370;2022-12-07T18:45:56;63.90;;;59.90;;
22378;SDS011;11357;49.990;7.370;2022-12-07T18:48:22;39.87;;;37.17;;
22378;SDS011;11357;49.990;7.370;2022-12-07T18:50:58;57.07;;;53.03;;
22378;SDS011;11357;49.990;7.370;2022-12-07T18:53:25;47.00;;;43.50;;
22378;SDS011;11357;49.990;7.370;2022-12-07T18:55:59;57.03;;;53.53;;
22378;SDS011;11357;49.990;7.370;2022-12-07T18:58:29;21.07;;;15.67;;
22378;SDS011;11357;49.990;7.370;2022-12-07T19:00:55;32.87;;;30.23;;
22378;SDS011;11357;49.990;7.370;2022-12-07T19:03:22;48.27;;;44.77;;
22378;SDS011;11357;49.990;7.370;2022-12-07T19:05:48;52.77;;;48.73;;
22378;SDS011;11357;49.990;7.370;2022-12-07T19:08:20;65.13;;;61.07;;
22378;SDS011;11357;49.990;7.370;2022-12-07T19:14:09;25.13;;;18.23;;
22378;SDS011;11357;49.990;7.370;2022-12-07T19:16:35;55.00;;;51.07;;
22378;SDS011;11357;49.990;7.370;2022-12-07T19:19:02;59.77;;;55.97;;
22378;SDS011;11357;49.990;7.370;2022-12-07T19:21:28;71.33;;;66.87;;
22378;SDS011;11357;49.990;7.370;2022-12-07T19:23:54;78.67;;;73.60;;
22378;SDS011;11357;49.990;7.370;2022-12-07T19:26:20;78.60;;;73.30;;